Time;durP1;ratioP1;P1;durP2;ratioP2;P2;SDS_P1;SDS_P2;PMS_P1;PMS_P2;Temp;Humidity;BMP_temperature;BMP_pressure;BME280_temperature;BME280_humidity;BME280_pressure;Samples;Min_cycle;Max_cycle;Signal;HPM_P1;HPM_P2
2022/09/01 00:01:55;;;;;;;11.85;7.03;;;;;;;;;;4956524;28;20034;-64
2022/09/01 00:04:25;;;;;;;11.45;6.95;;;;;;;;;;4956147;28;20039;-64
2022/09/01 00:06:53;;;;;;;12.85;7.53;;;;;;;;;;4956499;28;20043;-65
2022/09/01 00:09:20;;;;;;;11.68;7.38;;;;;;;;;;4956786;28;20031;-66
2022/09/01 00:11:49;;;;;;;9.40;6.65;;;;;;;;;;4960684;28;20114;-67
2022/09/01 00:14:16;;;;;;;10.35;6.78;;;;;;;;;;4956528;28;20030;-65
2022/09/01 00:16:41;;;;;;;11.10;6.97;;;;;;;;;;4956259;28;20031;-65
2022/09/01 00:19:07;;;;;;;12.77;7.22;;;;;;;;;;4956421;28;20434;-67
2022/09/01 00:21:37;;;;;;;13.05;7.32;;;;;;;;;;4955528;28;20510;-66
2022/09/01 00:24:03;;;;;;;13.25;7.32;;;;;;;;;;4937290;29;20083;-67
2022/09/01 00:26:29;;;;;;;12.20;6.78;;;;;;;;;;4937212;29;20040;-68
2022/09/01 00:28:55;;;;;;;10.00;7.15;;;;;;;;;;4920042;29;20036;-64
2022/09/01 00:31:22;;;;;;;16.02;7.68;;;;;;;;;;4937101;29;20038;-65
2022/09/01 00:33:49;;;;;;;11.32;8.02;;;;;;;;;;4936861;29;20039;-69
2022/09/01 00:36:16;;;;;;;12.27;8.35;;;;;;;;;;4937059;29;20027;-66
2022/09/01 00:38:42;;;;;;;13.57;10.10;;;;;;;;;;4935941;29;20045;-64
2022/09/01 00:41:09;;;;;;;15.63;10.75;;;;;;;;;;4953914;28;20586;-65
2022/09/01 00:43:44;;;;;;;16.35;10.02;;;;;;;;;;4955964;28;20486;-66
2022/09/01 00:46:20;;;;;;;11.07;7.22;;;;;;;;;;4939090;29;20049;-66
2022/09/01 00:48:50;;;;;;;12.13;8.40;;;;;;;;;;4954654;28;20031;-65
2022/09/01 00:51:16;;;;;;;12.77;7.60;;;;;;;;;;4938549;28;20066;-65
2022/09/01 00:53:44;;;;;;;15.23;8.38;;;;;;;;;;4938573;28;20027;-67
2022/09/01 00:56:12;;;;;;;12.38;8.48;;;;;;;;;;4956003;28;20446;-70
2022/09/01 00:58:38;;;;;;;15.13;8.90;;;;;;;;;;4955682;28;20102;-68
2022/09/01 01:01:07;;;;;;;15.10;9.73;;;;;;;;;;4955607;28;20035;-68
2022/09/01 01:03:33;;;;;;;12.45;8.75;;;;;;;;;;4954696;28;20059;-67
2022/09/01 01:06:03;;;;;;;20.50;9.13;;;;;;;;;;4955108;28;20078;-66
2022/09/01 01:08:35;;;;;;;17.13;8.00;;;;;;;;;;4938019;29;20090;-64
2022/09/01 01:11:19;;;;;;;13.10;8.57;;;;;;;;;;4955438;28;20042;-65
2022/09/01 01:14:09;;;;;;;16.27;9.27;;;;;;;;;;4955286;28;20039;-66
2022/09/01 01:16:35;;;;;;;13.98;8.65;;;;;;;;;;4955502;28;20035;-65
2022/09/01 01:19:03;;;;;;;14.45;8.20;;;;;;;;;;4937870;28;20090;-65
2022/09/01 01:24:33;;;;;;;13.82;9.85;;;;;;;;;;4953523;28;20443;-66
2022/09/01 01:26:59;;;;;;;14.43;8.88;;;;;;;;;;4952349;28;20035;-65
2022/09/01 01:29:36;;;;;;;12.60;8.88;;;;;;;;;;4938239;29;20115;-65
2022/09/01 01:32:11;;;;;;;17.20;8.93;;;;;;;;;;4937828;29;20038;-64
2022/09/01 01:34:41;;;;;;;10.00;8.00;;;;;;;;;;4963556;28;20053;-65
2022/09/01 01:37:09;;;;;;;10.98;8.18;;;;;;;;;;4972955;28;20093;-65
2022/09/01 01:39:39;;;;;;;14.07;7.68;;;;;;;;;;4956678;28;20026;-66
2022/09/01 01:42:08;;;;;;;13.77;9.25;;;;;;;;;;4966477;28;20039;-65
2022/09/01 01:44:37;;;;;;;14.35;9.40;;;;;;;;;;4953564;28;20055;-65
2022/09/01 01:47:07;;;;;;;18.50;9.50;;;;;;;;;;4953715;28;20043;-64
2022/09/01 01:49:34;;;;;;;17.80;9.55;;;;;;;;;;4953664;28;20043;-67
2022/09/01 01:52:00;;;;;;;17.10;9.35;;;;;;;;;;4954673;29;20027;-64
2022/09/01 01:54:31;;;;;;;15.07;9.35;;;;;;;;;;4937509;28;20039;-67
2022/09/01 01:56:58;;;;;;;13.88;8.60;;;;;;;;;;4937522;29;20122;-67
2022/09/01 01:59:25;;;;;;;14.15;7.97;;;;;;;;;;4937499;28;20125;-69
2022/09/01 02:01:52;;;;;;;17.20;8.80;;;;;;;;;;4937482;28;20035;-68
2022/09/01 02:04:19;;;;;;;13.70;8.73;;;;;;;;;;4937187;29;20508;-66
2022/09/01 02:06:46;;;;;;;16.38;9.57;;;;;;;;;;4953231;28;20046;-66
2022/09/01 02:09:17;;;;;;;18.70;9.73;;;;;;;;;;4937338;29;20429;-67
2022/09/01 02:11:43;;;;;;;15.65;9.07;;;;;;;;;;4953236;28;20549;-66
2022/09/01 02:14:12;;;;;;;15.30;9.00;;;;;;;;;;4937111;29;20031;-67
2022/09/01 02:16:39;;;;;;;12.68;8.95;;;;;;;;;;4937225;29;20038;-65
2022/09/01 02:19:08;;;;;;;19.92;9.43;;;;;;;;;;4936978;29;20042;-64
2022/09/01 02:21:35;;;;;;;23.02;9.65;;;;;;;;;;4954170;28;20047;-66
2022/09/01 02:24:07;;;;;;;15.82;9.02;;;;;;;;;;4936772;29;20035;-65
2022/09/01 02:26:41;;;;;;;15.20;11.50;;;;;;;;;;4954155;28;20039;-70
2022/09/01 02:29:16;;;;;;;18.65;9.52;;;;;;;;;;4952457;28;20043;-65
2022/09/01 02:31:44;;;;;;;13.18;8.95;;;;;;;;;;4954141;29;20042;-66
2022/09/01 02:34:12;;;;;;;12.18;8.88;;;;;;;;;;4939767;29;20047;-66
2022/09/01 02:36:46;;;;;;;13.48;9.02;;;;;;;;;;4953074;29;20039;-69
2022/09/01 02:39:16;;;;;;;11.77;8.30;;;;;;;;;;4969092;28;20035;-65
2022/09/01 02:41:42;;;;;;;11.73;8.10;;;;;;;;;;4952537;28;20514;-66
2022/09/01 02:44:10;;;;;;;14.35;8.25;;;;;;;;;;4951738;28;20375;-64
2022/09/01 02:46:40;;;;;;;15.80;8.15;;;;;;;;;;4952732;29;20035;-64
2022/09/01 02:49:20;;;;;;;15.68;8.75;;;;;;;;;;4952648;28;20047;-65
2022/09/01 02:51:51;;;;;;;15.38;8.65;;;;;;;;;;4968717;28;20090;-65
2022/09/01 02:54:18;;;;;;;19.20;9.52;;;;;;;;;;4954003;28;20049;-64
2022/09/01 02:56:48;;;;;;;14.02;8.93;;;;;;;;;;4952299;28;20027;-65
2022/09/01 02:59:20;;;;;;;15.55;8.70;;;;;;;;;;4968583;28;20114;-65
2022/09/01 03:01:49;;;;;;;19.37;10.13;;;;;;;;;;4952451;28;20035;-64
2022/09/01 03:04:16;;;;;;;16.33;9.35;;;;;;;;;;4952269;28;20285;-64
2022/09/01 03:06:42;;;;;;;12.98;8.57;;;;;;;;;;4948963;28;20042;-64
2022/09/01 03:09:13;;;;;;;13.95;8.77;;;;;;;;;;4951001;28;20098;-64
2022/09/01 03:11:42;;;;;;;16.60;9.85;;;;;;;;;;4952114;28;20102;-63
2022/09/01 03:14:08;;;;;;;13.10;8.77;;;;;;;;;;4952027;28;20035;-65
2022/09/01 03:16:36;;;;;;;15.95;9.43;;;;;;;;;;4952859;28;20042;-64
2022/09/01 03:19:06;;;;;;;13.07;8.77;;;;;;;;;;4952154;28;20479;-64
2022/09/01 03:21:32;;;;;;;13.98;9.65;;;;;;;;;;4952130;29;20050;-66
2022/09/01 03:24:00;;;;;;;14.85;9.18;;;;;;;;;;4953823;28;20023;-65
2022/09/01 03:26:27;;;;;;;15.38;9.68;;;;;;;;;;4952437;28;20063;-65
2022/09/01 03:28:54;;;;;;;13.32;9.02;;;;;;;;;;4951929;28;20434;-64
2022/09/01 03:31:26;;;;;;;13.95;8.50;;;;;;;;;;4951841;29;20035;-65
2022/09/01 03:33:56;;;;;;;15.43;8.75;;;;;;;;;;4951761;28;20051;-63
2022/09/01 03:36:28;;;;;;;14.32;9.35;;;;;;;;;;4968141;28;20083;-64
2022/09/01 03:38:55;;;;;;;13.05;8.10;;;;;;;;;;4953421;28;20039;-68
2022/09/01 03:41:27;;;;;;;15.40;8.48;;;;;;;;;;4952127;28;20391;-66
2022/09/01 03:43:53;;;;;;;18.50;10.10;;;;;;;;;;4951242;28;20079;-66
2022/09/01 03:46:23;;;;;;;17.25;9.40;;;;;;;;;;4949378;28;20059;-66
2022/09/01 03:48:53;;;;;;;15.90;9.15;;;;;;;;;;4951702;29;20031;-66
2022/09/01 03:51:21;;;;;;;21.63;9.98;;;;;;;;;;4968184;28;20122;-65
2022/09/01 03:53:53;;;;;;;12.43;8.90;;;;;;;;;;4951307;28;20024;-64
2022/09/01 03:56:20;;;;;;;14.60;9.35;;;;;;;;;;4953877;28;20042;-64
2022/09/01 03:58:47;;;;;;;12.75;9.02;;;;;;;;;;4953360;28;20032;-64
2022/09/01 04:01:16;;;;;;;14.70;8.43;;;;;;;;;;4960953;28;20035;-65
2022/09/01 04:03:45;;;;;;;13.77;8.57;;;;;;;;;;4954519;28;20042;-64
2022/09/01 04:06:12;;;;;;;12.02;8.63;;;;;;;;;;4956243;28;20487;-64
2022/09/01 04:08:39;;;;;;;23.17;10.35;;;;;;;;;;4956245;28;20023;-64
2022/09/01 04:11:17;;;;;;;17.90;9.32;;;;;;;;;;4955891;28;20039;-64
2022/09/01 04:13:46;;;;;;;14.98;8.68;;;;;;;;;;4957206;28;20172;-64
2022/09/01 04:19:18;;;;;;;15.40;9.05;;;;;;;;;;4954591;28;20035;-64
2022/09/01 04:21:49;;;;;;;14.48;9.77;;;;;;;;;;4955222;28;20035;-67
2022/09/01 04:24:17;;;;;;;20.75;9.70;;;;;;;;;;4971535;28;20035;-68
2022/09/01 04:26:46;;;;;;;22.98;10.15;;;;;;;;;;4955527;28;20037;-72
2022/09/01 04:29:14;;;;;;;14.45;8.75;;;;;;;;;;4955774;28;20043;-73
2022/09/01 04:31:41;;;;;;;15.63;8.38;;;;;;;;;;4955722;28;20023;-72
2022/09/01 04:34:12;;;;;;;13.82;7.90;;;;;;;;;;4952418;28;20090;-70
2022/09/01 04:36:43;;;;;;;14.68;7.40;;;;;;;;;;4957497;28;20034;-72
2022/09/01 04:39:12;;;;;;;14.82;7.65;;;;;;;;;;4975301;28;20046;-71
2022/09/01 04:41:43;;;;;;;15.65;8.48;;;;;;;;;;4960447;28;20106;-71
2022/09/01 04:44:09;;;;;;;15.35;7.75;;;;;;;;;;4966393;28;20387;-71
2022/09/01 04:46:41;;;;;;;18.00;7.55;;;;;;;;;;4973144;28;20034;-73
2022/09/01 04:49:09;;;;;;;11.77;7.38;;;;;;;;;;4973341;28;20041;-70
2022/09/01 04:51:41;;;;;;;11.80;7.40;;;;;;;;;;4989775;28;20030;-70
2022/09/01 04:54:11;;;;;;;13.38;8.10;;;;;;;;;;4972717;28;20517;-69
2022/09/01 04:56:37;;;;;;;13.63;7.68;;;;;;;;;;4974404;28;20061;-69
2022/09/01 04:59:14;;;;;;;11.00;7.05;;;;;;;;;;4952947;28;20038;-69
2022/09/01 05:01:45;;;;;;;10.52;7.30;;;;;;;;;;4969707;28;20043;-69
2022/09/01 05:04:33;;;;;;;14.80;7.50;;;;;;;;;;4953835;28;20490;-69
2022/09/01 05:07:04;;;;;;;16.80;7.07;;;;;;;;;;4937153;29;20632;-69
2022/09/01 05:09:35;;;;;;;10.63;7.55;;;;;;;;;;4969482;28;20031;-71
2022/09/01 05:12:15;;;;;;;12.68;7.00;;;;;;;;;;4963407;28;20042;-68
2022/09/01 05:14:47;;;;;;;17.17;8.02;;;;;;;;;;4973262;28;20039;-69
2022/09/01 05:17:17;;;;;;;20.90;7.55;;;;;;;;;;4972840;28;20177;-69
2022/09/01 05:19:49;;;;;;;15.43;7.18;;;;;;;;;;4972533;28;20552;-69
2022/09/01 05:22:17;;;;;;;20.77;7.25;;;;;;;;;;4988452;28;20456;-69
2022/09/01 05:24:50;;;;;;;11.75;6.53;;;;;;;;;;4988454;28;20430;-74
2022/09/01 05:27:17;;;;;;;14.70;7.38;;;;;;;;;;4974470;28;20031;-74
2022/09/01 05:29:45;;;;;;;12.38;7.32;;;;;;;;;;4972724;28;20061;-70
2022/09/01 05:32:12;;;;;;;11.02;6.88;;;;;;;;;;4973518;28;20449;-73
2022/09/01 05:34:44;;;;;;;13.68;7.07;;;;;;;;;;4972323;28;20502;-73
2022/09/01 05:37:13;;;;;;;16.92;7.18;;;;;;;;;;4989120;28;20043;-75
2022/09/01 05:39:39;;;;;;;11.82;7.97;;;;;;;;;;4972335;28;20023;-70
2022/09/01 05:42:09;;;;;;;18.17;7.85;;;;;;;;;;4989193;28;20041;-73
2022/09/01 05:44:42;;;;;;;13.45;7.50;;;;;;;;;;4971656;28;20130;-73
2022/09/01 05:47:11;;;;;;;9.57;5.80;;;;;;;;;;4972197;28;20042;-69
2022/09/01 05:49:38;;;;;;;9.45;6.47;;;;;;;;;;4988634;28;20300;-69
2022/09/01 05:52:08;;;;;;;12.05;6.30;;;;;;;;;;4988231;28;20064;-68
2022/09/01 05:54:35;;;;;;;14.05;7.13;;;;;;;;;;4931260;29;20039;-68
2022/09/01 05:57:02;;;;;;;11.30;6.80;;;;;;;;;;4931572;29;20035;-69
2022/09/01 05:59:32;;;;;;;10.35;6.30;;;;;;;;;;4934851;29;20479;-69
2022/09/01 06:02:08;;;;;;;12.95;6.40;;;;;;;;;;4933292;29;20035;-68
2022/09/01 06:04:40;;;;;;;16.95;7.00;;;;;;;;;;4934682;29;20062;-69
2022/09/01 06:07:14;;;;;;;14.27;7.93;;;;;;;;;;4933788;29;20040;-69
2022/09/01 06:09:48;;;;;;;10.85;7.18;;;;;;;;;;4949881;28;20047;-69
2022/09/01 06:12:20;;;;;;;10.95;6.57;;;;;;;;;;4949550;28;20047;-71
2022/09/01 06:14:48;;;;;;;15.98;6.88;;;;;;;;;;4949133;28;20476;-69
2022/09/01 06:17:17;;;;;;;15.13;6.97;;;;;;;;;;4935148;29;20078;-69
2022/09/01 06:19:43;;;;;;;11.75;6.80;;;;;;;;;;4933259;29;20045;-68
2022/09/01 06:22:09;;;;;;;17.08;7.95;;;;;;;;;;4949345;28;20114;-69
2022/09/01 06:24:38;;;;;;;13.30;8.30;;;;;;;;;;4932777;29;20059;-68
2022/09/01 06:27:08;;;;;;;14.07;8.07;;;;;;;;;;4935086;29;20585;-71
2022/09/01 06:29:38;;;;;;;14.05;7.65;;;;;;;;;;4950360;28;20094;-67
2022/09/01 06:32:09;;;;;;;17.95;7.75;;;;;;;;;;4953780;28;20430;-67
2022/09/01 06:34:38;;;;;;;16.38;8.05;;;;;;;;;;4969751;28;20055;-69
2022/09/01 06:37:05;;;;;;;19.40;8.57;;;;;;;;;;4970897;28;20035;-68
2022/09/01 06:39:33;;;;;;;15.13;7.13;;;;;;;;;;4971362;28;20379;-70
2022/09/01 06:42:01;;;;;;;11.80;6.63;;;;;;;;;;4971053;28;20089;-69
2022/09/01 06:44:37;;;;;;;17.90;7.38;;;;;;;;;;4970314;28;20049;-69
2022/09/01 06:47:07;;;;;;;21.88;8.57;;;;;;;;;;4971462;28;20030;-69
2022/09/01 06:49:35;;;;;;;12.73;6.60;;;;;;;;;;4971350;28;20030;-72
2022/09/01 06:52:07;;;;;;;15.35;7.13;;;;;;;;;;4986392;28;20031;-71
2022/09/01 06:54:37;;;;;;;10.60;6.05;;;;;;;;;;4971085;28;20095;-68
2022/09/01 06:57:04;;;;;;;21.05;7.32;;;;;;;;;;4971097;28;20043;-67
2022/09/01 06:59:31;;;;;;;13.57;6.68;;;;;;;;;;4987151;28;20041;-69
2022/09/01 07:02:00;;;;;;;16.27;7.70;;;;;;;;;;4986676;28;20046;-68
2022/09/01 07:04:44;;;;;;;16.63;7.03;;;;;;;;;;4972443;28;20070;-68
2022/09/01 07:07:11;;;;;;;10.73;6.38;;;;;;;;;;4972263;28;20486;-73
2022/09/01 07:09:56;;;;;;;18.92;7.10;;;;;;;;;;4972688;28;20492;-74
2022/09/01 07:12:29;;;;;;;18.52;6.82;;;;;;;;;;4986884;28;20066;-71
2022/09/01 07:14:57;;;;;;;15.85;7.25;;;;;;;;;;4970303;28;20129;-72
2022/09/01 07:17:24;;;;;;;13.07;6.50;;;;;;;;;;4971971;28;20030;-71
2022/09/01 07:19:50;;;;;;;13.90;6.45;;;;;;;;;;4972298;28;20482;-71
2022/09/01 07:22:16;;;;;;;11.15;7.00;;;;;;;;;;4970099;28;20065;-73
2022/09/01 07:24:46;;;;;;;15.10;6.85;;;;;;;;;;4986371;28;20508;-74
2022/09/01 07:27:31;;;;;;;18.40;7.65;;;;;;;;;;4972443;28;20105;-67
2022/09/01 07:29:56;;;;;;;11.85;6.28;;;;;;;;;;4970918;28;20430;-67
2022/09/01 07:32:22;;;;;;;13.30;6.85;;;;;;;;;;4975779;28;20085;-67
2022/09/01 07:34:49;;;;;;;13.63;6.68;;;;;;;;;;4974706;28;20046;-69
2022/09/01 07:37:21;;;;;;;14.07;7.88;;;;;;;;;;4974273;28;20142;-69
2022/09/01 07:39:48;;;;;;;14.57;7.13;;;;;;;;;;4990744;28;20031;-68
2022/09/01 07:42:28;;;;;;;18.55;7.28;;;;;;;;;;4973834;28;20031;-68
2022/09/01 07:45:16;;;;;;;11.75;7.28;;;;;;;;;;4975730;28;20517;-66
2022/09/01 07:48:05;;;;;;;12.88;7.18;;;;;;;;;;4974549;28;20393;-67
2022/09/01 07:50:46;;;;;;;14.57;7.22;;;;;;;;;;4990915;28;20378;-67
2022/09/01 07:53:18;;;;;;;17.25;7.25;;;;;;;;;;4974570;28;20439;-67
2022/09/01 07:55:48;;;;;;;10.38;6.15;;;;;;;;;;4958482;28;20389;-66
2022/09/01 07:58:14;;;;;;;10.32;6.00;;;;;;;;;;4973851;28;20030;-66
2022/09/01 08:00:46;;;;;;;14.00;6.25;;;;;;;;;;4973356;28;20118;-67
2022/09/01 08:03:16;;;;;;;11.05;6.72;;;;;;;;;;4973744;28;20050;-68
2022/09/01 08:05:46;;;;;;;10.50;6.50;;;;;;;;;;4990212;28;20117;-70
2022/09/01 08:08:12;;;;;;;15.77;7.43;;;;;;;;;;4975591;28;20031;-68
2022/09/01 08:10:40;;;;;;;14.70;6.70;;;;;;;;;;4975389;28;20037;-68
2022/09/01 08:13:08;;;;;;;9.75;6.45;;;;;;;;;;4973639;28;20401;-66
2022/09/01 08:15:34;;;;;;;14.65;6.75;;;;;;;;;;4975128;28;20027;-67
2022/09/01 08:18:00;;;;;;;10.50;5.95;;;;;;;;;;4989914;28;20038;-67
2022/09/01 08:20:30;;;;;;;12.20;6.30;;;;;;;;;;4973659;28;20109;-68
2022/09/01 08:23:18;;;;;;;11.80;6.47;;;;;;;;;;4989777;28;20386;-71
2022/09/01 08:25:46;;;;;;;15.88;6.50;;;;;;;;;;4974610;28;20505;-69
2022/09/01 08:28:14;;;;;;;11.25;6.43;;;;;;;;;;4953753;28;20058;-67
2022/09/01 08:30:44;;;;;;;13.93;6.25;;;;;;;;;;4964404;28;20074;-67
2022/09/01 08:33:10;;;;;;;12.07;6.30;;;;;;;;;;4973023;28;20035;-67
2022/09/01 08:35:42;;;;;;;10.93;5.95;;;;;;;;;;4972883;28;20405;-67
2022/09/01 08:38:09;;;;;;;12.13;6.30;;;;;;;;;;4983406;28;20090;-67
2022/09/01 08:40:36;;;;;;;10.75;5.60;;;;;;;;;;4955212;28;20031;-66
2022/09/01 08:43:16;;;;;;;8.73;5.55;;;;;;;;;;4968501;28;20047;-68
2022/09/01 08:45:57;;;;;;;8.75;6.57;;;;;;;;;;4955569;28;20376;-67
2022/09/01 08:48:36;;;;;;;18.77;6.82;;;;;;;;;;4953499;28;20050;-70
2022/09/01 08:51:33;;;;;;;12.50;6.60;;;;;;;;;;4954971;28;20039;-73
2022/09/01 08:54:14;;;;;;;12.57;6.35;;;;;;;;;;4953821;28;20116;-70
2022/09/01 08:56:40;;;;;;;15.23;6.72;;;;;;;;;;4953721;28;20027;-69
2022/09/01 08:59:08;;;;;;;11.65;6.40;;;;;;;;;;4953266;29;20395;-72
2022/09/01 09:02:40;;;;;;;12.15;6.07;;;;;;;;;;4949754;28;20050;-68
2022/09/01 09:05:19;;;;;;;10.67;6.83;;;;;;;;;;4954121;28;20450;-67
2022/09/01 09:08:22;;;;;;;13.63;6.38;;;;;;;;;;4954435;28;20058;-68
2022/09/01 09:10:58;;;;;;;8.70;5.70;;;;;;;;;;4954394;28;20035;-70
2022/09/01 09:13:51;;;;;;;11.48;6.20;;;;;;;;;;4954294;28;20385;-68
2022/09/01 09:16:38;;;;;;;12.68;6.25;;;;;;;;;;4954882;28;20035;-67
2022/09/01 09:19:09;;;;;;;13.13;6.38;;;;;;;;;;4954788;28;20382;-67
2022/09/01 09:21:38;;;;;;;11.98;6.20;;;;;;;;;;4954017;28;20046;-68
2022/09/01 09:24:48;;;;;;;12.65;6.00;;;;;;;;;;4969188;28;20039;-66
2022/09/01 09:27:32;;;;;;;13.02;6.50;;;;;;;;;;4952817;28;20147;-67
2022/09/01 09:30:01;;;;;;;11.40;5.35;;;;;;;;;;4954377;28;20110;-68
2022/09/01 09:32:42;;;;;;;10.43;5.78;;;;;;;;;;4954209;29;20102;-67
2022/09/01 09:35:23;;;;;;;12.15;6.15;;;;;;;;;;4971206;28;20042;-67
2022/09/01 09:37:49;;;;;;;11.05;5.55;;;;;;;;;;4973533;28;20439;-66
2022/09/01 09:40:21;;;;;;;12.85;5.80;;;;;;;;;;4973740;28;20496;-66
2022/09/01 09:42:53;;;;;;;11.30;5.65;;;;;;;;;;4972818;28;20565;-67
2022/09/01 09:45:24;;;;;;;13.63;6.20;;;;;;;;;;4973642;28;20572;-66
2022/09/01 09:47:52;;;;;;;8.80;5.53;;;;;;;;;;4973471;28;20038;-66
2022/09/01 09:50:34;;;;;;;12.80;6.40;;;;;;;;;;4973259;28;20030;-67
2022/09/01 09:53:26;;;;;;;13.90;6.13;;;;;;;;;;4972896;28;20039;-67
2022/09/01 09:56:21;;;;;;;13.93;5.95;;;;;;;;;;4973242;28;20039;-66
2022/09/01 09:58:49;;;;;;;8.32;5.63;;;;;;;;;;4967304;28;20125;-67
2022/09/01 10:01:22;;;;;;;11.13;5.97;;;;;;;;;;4973082;28;20025;-68
2022/09/01 10:03:57;;;;;;;12.30;6.03;;;;;;;;;;4972710;28;20582;-67
2022/09/01 10:06:34;;;;;;;13.13;5.90;;;;;;;;;;4972664;28;20564;-65
2022/09/01 10:09:06;;;;;;;15.68;5.72;;;;;;;;;;4972071;28;20035;-68
2022/09/01 10:11:38;;;;;;;11.13;5.88;;;;;;;;;;4973069;28;20390;-68
2022/09/01 10:14:11;;;;;;;13.97;5.80;;;;;;;;;;4973260;28;20031;-67
2022/09/01 10:16:39;;;;;;;13.15;5.75;;;;;;;;;;4971650;28;20494;-67
2022/09/01 10:19:10;;;;;;;16.42;6.57;;;;;;;;;;4972741;28;20058;-68
2022/09/01 10:21:39;;;;;;;10.68;6.07;;;;;;;;;;4987637;28;20578;-69
2022/09/01 10:24:31;;;;;;;12.60;6.05;;;;;;;;;;4972702;28;20073;-70
2022/09/01 10:27:00;;;;;;;17.00;6.20;;;;;;;;;;4972083;28;20042;-68
2022/09/01 10:29:32;;;;;;;10.07;6.03;;;;;;;;;;4972466;28;20486;-68
2022/09/01 10:31:59;;;;;;;11.40;6.25;;;;;;;;;;4972625;28;20114;-67
2022/09/01 10:34:29;;;;;;;11.30;5.85;;;;;;;;;;4956414;28;20083;-73
2022/09/01 10:36:56;;;;;;;17.92;7.05;;;;;;;;;;4953466;28;20114;-72
2022/09/01 10:39:24;;;;;;;15.43;6.45;;;;;;;;;;4936235;28;20055;-67
2022/09/01 10:41:52;;;;;;;10.55;6.05;;;;;;;;;;4962801;28;20117;-68
2022/09/01 10:44:33;;;;;;;10.13;5.88;;;;;;;;;;4952171;28;20039;-68
2022/09/01 10:47:23;;;;;;;10.57;6.45;;;;;;;;;;4952133;28;20084;-68
2022/09/01 10:49:49;;;;;;;14.90;5.93;;;;;;;;;;4953212;28;20047;-67
2022/09/01 10:52:39;;;;;;;11.77;5.28;;;;;;;;;;4953944;28;20023;-66
2022/09/01 10:55:23;;;;;;;10.63;5.55;;;;;;;;;;4954074;28;20071;-66
2022/09/01 10:58:19;;;;;;;10.52;5.47;;;;;;;;;;4953548;28;20046;-67
2022/09/01 11:00:48;;;;;;;11.10;5.78;;;;;;;;;;4954480;28;20058;-67
2022/09/01 11:03:17;;;;;;;10.27;4.93;;;;;;;;;;4953725;28;20031;-67
2022/09/01 11:05:52;;;;;;;10.60;5.43;;;;;;;;;;4955432;28;20546;-66
2022/09/01 11:08:42;;;;;;;9.52;6.15;;;;;;;;;;4957640;28;20043;-67
2022/09/01 11:11:43;;;;;;;11.43;5.72;;;;;;;;;;4956627;28;20043;-67
2022/09/01 11:14:25;;;;;;;11.45;5.55;;;;;;;;;;4957034;28;20071;-67
2022/09/01 11:17:12;;;;;;;13.18;5.70;;;;;;;;;;4937879;28;20430;-66
2022/09/01 11:19:44;;;;;;;12.30;5.78;;;;;;;;;;4956999;28;20479;-66
2022/09/01 11:22:14;;;;;;;11.23;6.05;;;;;;;;;;4956800;28;20043;-66
2022/09/01 11:24:43;;;;;;;12.38;6.10;;;;;;;;;;4954460;28;20043;-66
2022/09/01 11:27:12;;;;;;;14.05;6.90;;;;;;;;;;4939062;29;20027;-65
2022/09/01 11:30:15;;;;;;;10.02;5.50;;;;;;;;;;4906185;28;20052;-65
2022/09/01 11:32:48;;;;;;;9.65;6.00;;;;;;;;;;4909042;29;20530;-67
2022/09/01 11:35:21;;;;;;;12.82;5.38;;;;;;;;;;4916275;29;20062;-66
2022/09/01 11:37:54;;;;;;;14.02;5.88;;;;;;;;;;4921197;29;20040;-67
2022/09/01 11:40:22;;;;;;;;;;;;;;;;;;4932189;29;20032;-67
2022/09/01 11:42:53;;;;;;;11.43;5.80;;;;;;;;;;4936696;29;20001;-66
2022/09/01 11:45:27;;;;;;;13.75;5.72;;;;;;;;;;4921432;29;20040;-66
2022/09/01 11:48:09;;;;;;;12.63;5.70;;;;;;;;;;4935813;29;20499;-67
2022/09/01 11:50:37;;;;;;;10.57;6.05;;;;;;;;;;4934525;29;20044;-67
2022/09/01 11:53:07;;;;;;;11.88;5.30;;;;;;;;;;4936369;29;20042;-67
2022/09/01 11:55:42;;;;;;;13.48;5.38;;;;;;;;;;4935202;29;20119;-67
2022/09/01 11:58:27;;;;;;;11.38;5.35;;;;;;;;;;4939429;29;20035;-69
2022/09/01 12:00:58;;;;;;;7.82;5.60;;;;;;;;;;4938516;29;20062;-65
2022/09/01 12:03:28;;;;;;;15.38;6.57;;;;;;;;;;4955723;28;20095;-68
2022/09/01 12:06:00;;;;;;;10.00;5.78;;;;;;;;;;4937764;29;20150;-68
2022/09/01 12:08:30;;;;;;;13.25;5.38;;;;;;;;;;4946832;29;20500;-70
2022/09/01 12:11:09;;;;;;;8.82;5.43;;;;;;;;;;4934643;29;20463;-66
2022/09/01 12:13:39;;;;;;;13.77;5.78;;;;;;;;;;4918024;29;20494;-66
2022/09/01 12:16:08;;;;;;;7.03;5.07;;;;;;;;;;4918560;29;20031;-67
2022/09/01 12:18:38;;;;;;;11.10;5.78;;;;;;;;;;4913882;29;20032;-68
2022/09/01 12:21:07;;;;;;;13.25;5.82;;;;;;;;;;4934903;29;20028;-69
2022/09/01 12:23:36;;;;;;;9.95;5.78;;;;;;;;;;4933892;29;20111;-65
2022/09/01 12:26:05;;;;;;;13.07;5.40;;;;;;;;;;4919063;29;20137;-66
2022/09/01 12:28:38;;;;;;;10.52;5.80;;;;;;;;;;4918895;29;20023;-67
2022/09/01 12:31:11;;;;;;;12.32;5.70;;;;;;;;;;4935907;29;20403;-67
2022/09/01 12:33:38;;;;;;;14.13;6.47;;;;;;;;;;4934136;29;20032;-66
2022/09/01 12:36:22;;;;;;;12.55;6.35;;;;;;;;;;4918467;29;20028;-66
2022/09/01 12:38:50;;;;;;;14.63;5.68;;;;;;;;;;4930694;29;20102;-68
2022/09/01 12:41:33;;;;;;;9.90;5.68;;;;;;;;;;4931045;29;20035;-67
2022/09/01 12:44:30;;;;;;;10.15;5.03;;;;;;;;;;4930798;29;20201;-67
2022/09/01 12:46:59;;;;;;;12.63;5.70;;;;;;;;;;4935297;29;20047;-69
2022/09/01 12:49:44;;;;;;;10.02;5.82;;;;;;;;;;4935227;29;20746;-66
2022/09/01 12:52:19;;;;;;;9.98;5.85;;;;;;;;;;4917640;29;20112;-68
2022/09/01 12:54:58;;;;;;;9.52;5.63;;;;;;;;;;4919142;29;20036;-67
2022/09/01 12:57:27;;;;;;;7.90;5.63;;;;;;;;;;4945161;29;20082;-67
2022/09/01 13:00:11;;;;;;;12.43;5.60;;;;;;;;;;4934562;29;20027;-69
2022/09/01 13:02:44;;;;;;;13.00;5.85;;;;;;;;;;4932746;29;20028;-68
2022/09/01 13:05:30;;;;;;;11.05;5.57;;;;;;;;;;4934790;29;20032;-68
2022/09/01 13:08:11;;;;;;;12.82;5.68;;;;;;;;;;4933704;29;20040;-67
2022/09/01 13:10:40;;;;;;;14.52;5.32;;;;;;;;;;4935128;29;20027;-69
2022/09/01 13:13:08;;;;;;;12.05;6.00;;;;;;;;;;4936279;29;20087;-68
2022/09/01 13:15:37;;;;;;;7.47;5.53;;;;;;;;;;4937876;29;20027;-66
2022/09/01 13:18:03;;;;;;;8.82;5.60;;;;;;;;;;4936084;29;20475;-68
2022/09/01 13:20:32;;;;;;;10.18;5.80;;;;;;;;;;4935949;29;20056;-69
2022/09/01 13:22:58;;;;;;;10.98;5.30;;;;;;;;;;4935611;29;20427;-71
2022/09/01 13:25:24;;;;;;;11.25;5.50;;;;;;;;;;4935788;29;20042;-69
2022/09/01 13:27:51;;;;;;;13.02;5.57;;;;;;;;;;4934359;29;20028;-69
2022/09/01 13:30:20;;;;;;;9.13;5.65;;;;;;;;;;4935234;29;20483;-70
2022/09/01 13:32:47;;;;;;;14.88;5.55;;;;;;;;;;4936072;29;20020;-70
2022/09/01 13:35:16;;;;;;;11.75;5.70;;;;;;;;;;4936328;29;20098;-71
2022/09/01 13:37:42;;;;;;;10.82;5.35;;;;;;;;;;4933725;29;20039;-68
2022/09/01 13:40:14;;;;;;;10.73;4.90;;;;;;;;;;4936723;29;20371;-70
2022/09/01 13:42:46;;;;;;;13.95;5.45;;;;;;;;;;4935902;29;20047;-70
2022/09/01 13:45:13;;;;;;;9.77;4.93;;;;;;;;;;4930605;29;20074;-69
2022/09/01 13:47:39;;;;;;;10.32;5.45;;;;;;;;;;4935898;29;20059;-69
2022/09/01 13:50:06;;;;;;;9.93;5.35;;;;;;;;;;4936485;29;20479;-68
2022/09/01 13:52:32;;;;;;;7.68;5.22;;;;;;;;;;4919577;29;20099;-68
2022/09/01 13:54:59;;;;;;;9.63;5.38;;;;;;;;;;4936750;29;20107;-71
2022/09/01 13:57:25;;;;;;;10.05;5.47;;;;;;;;;;4936593;29;20424;-73
2022/09/01 13:59:51;;;;;;;12.43;6.13;;;;;;;;;;4935731;29;20031;-68
2022/09/01 14:02:17;;;;;;;16.17;6.18;;;;;;;;;;4934410;29;20123;-69
2022/09/01 14:04:43;;;;;;;11.13;6.50;;;;;;;;;;4936142;29;20558;-67
2022/09/01 14:07:09;;;;;;;11.95;6.10;;;;;;;;;;4935425;29;20099;-73
2022/09/01 14:09:35;;;;;;;9.48;5.68;;;;;;;;;;4936278;29;20053;-69
2022/09/01 14:12:01;;;;;;;9.68;5.82;;;;;;;;;;4924371;29;20051;-70
2022/09/01 14:14:30;;;;;;;11.50;5.38;;;;;;;;;;4945738;29;20039;-67
2022/09/01 14:16:56;;;;;;;12.27;6.03;;;;;;;;;;4919686;29;20036;-69
2022/09/01 14:19:23;;;;;;;9.73;5.93;;;;;;;;;;4935474;29;20039;-69
2022/09/01 14:21:49;;;;;;;11.60;5.53;;;;;;;;;;4932443;29;20045;-67
2022/09/01 14:24:19;;;;;;;10.45;6.00;;;;;;;;;;4916607;29;20035;-71
2022/09/01 14:26:47;;;;;;;10.35;6.10;;;;;;;;;;4935807;29;20047;-70
2022/09/01 14:29:15;;;;;;;9.93;5.85;;;;;;;;;;4936064;29;20450;-67
2022/09/01 14:31:43;;;;;;;11.40;6.50;;;;;;;;;;4918240;29;20068;-67
2022/09/01 14:34:11;;;;;;;11.30;6.10;;;;;;;;;;4914906;29;20087;-69
2022/09/01 14:36:38;;;;;;;7.90;5.70;;;;;;;;;;4951613;28;20543;-70
2022/09/01 14:39:04;;;;;;;10.00;5.35;;;;;;;;;;4935917;29;20046;-67
2022/09/01 14:41:30;;;;;;;14.18;5.88;;;;;;;;;;4954172;28;20035;-69
2022/09/01 14:43:57;;;;;;;11.95;5.90;;;;;;;;;;4954322;28;20058;-68
2022/09/01 14:46:24;;;;;;;14.15;6.15;;;;;;;;;;4954492;28;20063;-68
2022/09/01 14:48:52;;;;;;;15.88;6.10;;;;;;;;;;4954643;28;20024;-71
2022/09/01 14:51:22;;;;;;;11.35;5.88;;;;;;;;;;4937727;29;20043;-73
2022/09/01 14:53:48;;;;;;;13.30;5.53;;;;;;;;;;4928834;29;20035;-68
2022/09/01 14:56:17;;;;;;;11.73;5.43;;;;;;;;;;4935507;29;20032;-70
2022/09/01 14:58:45;;;;;;;12.55;5.95;;;;;;;;;;4935619;29;20111;-68
2022/09/01 15:01:17;;;;;;;12.05;5.60;;;;;;;;;;4918388;29;20035;-68
2022/09/01 15:03:44;;;;;;;13.15;5.97;;;;;;;;;;4934025;29;20040;-66